Time;durP1;ratioP1;P1;durP2;ratioP2;P2;SDS_P1;SDS_P2;PMS_P1;PMS_P2;Temp;Humidity;BMP_temperature;BMP_pressure;BME280_temperature;BME280_humidity;BME280_pressure;Samples;Min_cycle;Max_cycle;Signal;HPM_P1;HPM_P2
2024/03/14 00:01:18;;;;;;;139.80;110.30;;;;;;;8.42;71.68;100578.29;110816;1256;22407;-66
2024/03/14 00:03:48;;;;;;;134.30;104.10;;;;;;;8.41;71.99;100575.87;110845;1256;21952;-67
2024/03/14 00:06:18;;;;;;;128.30;105.50;;;;;;;8.41;71.93;100576.55;110859;1256;22932;-67
2024/03/14 00:08:48;;;;;;;126.60;104.80;;;;;;;8.40;72.10;100578.20;110587;1256;21957;-67
2024/03/14 00:11:21;;;;;;;121.30;102.40;;;;;;;8.38;72.25;100575.34;110843;1256;21967;-68
2024/03/14 00:13:50;;;;;;;127.00;107.60;;;;;;;8.38;72.16;100574.13;110761;1256;21956;-67
2024/03/14 00:16:21;;;;;;;134.60;107.50;;;;;;;8.41;72.09;100568.31;110601;1257;21961;-71
2024/03/14 00:18:50;;;;;;;131.40;106.20;;;;;;;8.41;72.19;100567.07;110490;1256;23739;-67
2024/03/14 00:21:20;;;;;;;133.00;107.10;;;;;;;8.43;72.18;100568.22;110571;1256;22933;-67
2024/03/14 00:23:54;;;;;;;138.80;105.10;;;;;;;8.41;72.09;100563.75;110768;1256;23676;-68
2024/03/14 00:26:23;;;;;;;126.20;105.00;;;;;;;8.42;72.26;100560.05;110446;1256;22000;-67
2024/03/14 00:28:53;;;;;;;121.90;101.90;;;;;;;8.45;72.17;100558.45;110599;1256;21940;-67
2024/03/14 00:31:24;;;;;;;143.50;114.90;;;;;;;8.49;71.98;100556.64;110503;1256;21955;-69
2024/03/14 00:33:55;;;;;;;129.70;105.10;;;;;;;8.49;72.07;100557.55;110803;1255;23019;-70
2024/03/14 00:36:25;;;;;;;131.80;106.30;;;;;;;8.44;72.06;100558.14;110564;1256;23697;-69
2024/03/14 00:38:54;;;;;;;126.20;104.80;;;;;;;8.44;72.06;100556.20;110923;1256;23062;-68
2024/03/14 00:41:24;;;;;;;127.10;104.00;;;;;;;8.47;72.06;100555.55;110441;1257;23753;-69
2024/03/14 00:43:54;;;;;;;127.30;104.30;;;;;;;8.49;71.97;100552.60;110610;1250;23023;-68
2024/03/14 00:46:24;;;;;;;125.20;103.10;;;;;;;8.53;72.07;100552.22;110468;1256;21980;-67
2024/03/14 00:48:53;;;;;;;118.60;100.50;;;;;;;8.49;71.80;100552.26;110498;1256;23604;-69
2024/03/14 00:51:23;;;;;;;124.10;103.40;;;;;;;8.45;71.79;100548.12;110600;1256;21967;-67
2024/03/14 00:53:54;;;;;;;129.10;104.60;;;;;;;8.40;72.04;100548.52;110550;1257;23591;-67
2024/03/14 00:56:26;;;;;;;124.10;106.60;;;;;;;8.36;72.21;100544.58;110825;1257;22157;-69
2024/03/14 00:58:56;;;;;;;127.70;104.30;;;;;;;8.32;72.33;100543.90;110470;1256;23007;-67
2024/03/14 01:01:25;;;;;;;130.40;106.90;;;;;;;8.31;72.17;100545.53;111094;1256;21969;-67
2024/03/14 01:03:58;;;;;;;132.90;109.60;;;;;;;8.31;72.46;100545.39;110560;1256;23023;-69
2024/03/14 01:06:30;;;;;;;134.00;109.80;;;;;;;8.28;72.44;100545.52;110551;1256;22049;-69
2024/03/14 01:09:00;;;;;;;135.60;110.20;;;;;;;8.25;72.69;100542.74;111132;1244;21961;-66
2024/03/14 01:11:30;;;;;;;134.90;109.00;;;;;;;8.20;72.70;100540.25;110534;1256;21989;-67
2024/03/14 01:14:01;;;;;;;137.80;113.90;;;;;;;8.16;72.97;100539.21;110773;1256;21989;-66
2024/03/14 01:16:30;;;;;;;132.00;108.10;;;;;;;8.18;73.14;100535.95;110800;1256;23906;-67
2024/03/14 01:19:00;;;;;;;134.40;107.20;;;;;;;8.24;72.83;100529.63;110574;1256;22002;-66
2024/03/14 01:21:30;;;;;;;133.40;109.70;;;;;;;8.28;72.85;100525.36;110511;1256;23639;-67
2024/03/14 01:24:00;;;;;;;135.80;108.10;;;;;;;8.29;72.86;100525.30;110828;1256;21957;-67
2024/03/14 01:26:29;;;;;;;125.10;104.00;;;;;;;8.30;72.68;100523.70;110601;1256;23033;-67
2024/03/14 01:29:01;;;;;;;128.60;103.60;;;;;;;8.25;72.77;100524.84;110561;1256;21960;-68
2024/03/14 01:31:32;;;;;;;126.90;104.70;;;;;;;8.19;72.78;100521.52;110564;1256;24981;-71
2024/03/14 01:34:02;;;;;;;124.00;98.90;;;;;;;8.15;72.94;100522.63;110583;1256;23679;-68
2024/03/14 01:36:31;;;;;;;119.90;97.70;;;;;;;8.13;72.90;100520.10;110504;1257;21956;-68
2024/03/14 01:39:00;;;;;;;121.90;101.20;;;;;;;8.11;73.20;100519.01;110512;1257;22093;-67
2024/03/14 01:41:30;;;;;;;126.30;100.40;;;;;;;8.06;73.20;100516.98;110840;1256;21969;-67
2024/03/14 01:44:00;;;;;;;118.50;99.30;;;;;;;8.01;73.22;100516.73;110538;1256;21955;-67
2024/03/14 01:46:31;;;;;;;117.30;99.20;;;;;;;7.95;73.51;100516.20;110878;1251;24315;-67
2024/03/14 01:49:02;;;;;;;126.70;104.60;;;;;;;7.93;73.63;100517.72;110853;1256;22046;-69
2024/03/14 01:51:31;;;;;;;123.70;103.10;;;;;;;7.90;73.53;100516.49;110531;1256;22017;-68
2024/03/14 01:54:01;;;;;;;131.20;111.90;;;;;;;7.88;73.62;100518.19;110633;1256;21965;-67
2024/03/14 01:56:31;;;;;;;126.80;105.50;;;;;;;7.91;73.73;100520.30;110453;1256;21951;-66
2024/03/14 01:59:00;;;;;;;131.40;107.20;;;;;;;7.94;73.75;100516.77;110555;1256;23646;-69
2024/03/14 02:01:30;;;;;;;127.70;102.30;;;;;;;7.98;73.71;100513.08;110543;1256;21961;-68
2024/03/14 02:04:17;;;;;;;125.10;100.60;;;;;;;8.02;73.71;100512.13;110557;1256;23573;-69
2024/03/14 02:07:08;;;;;;;118.10;98.80;;;;;;;7.99;73.59;100513.48;110808;1256;22783;-69
2024/03/14 02:09:37;;;;;;;115.80;97.60;;;;;;;7.99;73.60;100513.17;110815;1255;22845;-67
2024/03/14 02:12:08;;;;;;;115.30;96.20;;;;;;;8.03;73.37;100510.48;110841;1256;21962;-68
2024/03/14 02:14:37;;;;;;;117.10;97.10;;;;;;;8.07;73.36;100509.91;110608;1256;22171;-67
2024/03/14 02:17:06;;;;;;;114.80;94.60;;;;;;;8.12;73.53;100508.10;110562;1256;23102;-68
2024/03/14 02:19:38;;;;;;;118.80;97.00;;;;;;;8.13;73.23;100507.83;110828;1256;23017;-67
2024/03/14 02:22:22;;;;;;;114.20;94.00;;;;;;;8.10;73.13;100510.29;110701;1256;22715;-66
2024/03/14 02:24:51;;;;;;;120.70;96.50;;;;;;;8.03;73.44;100508.58;110655;1256;23602;-67
2024/03/14 02:27:21;;;;;;;115.80;95.00;;;;;;;8.00;73.45;100509.06;110563;1256;21955;-67
2024/03/14 02:29:51;;;;;;;118.70;102.80;;;;;;;8.03;73.53;100509.98;110547;1256;24301;-67
2024/03/14 02:32:20;;;;;;;134.00;110.50;;;;;;;8.08;73.52;100510.58;110749;1256;21968;-67
2024/03/14 02:34:50;;;;;;;138.20;109.70;;;;;;;8.13;73.32;100512.38;110571;1256;22728;-66
2024/03/14 02:37:22;;;;;;;115.30;97.00;;;;;;;8.12;73.24;100507.70;110468;1256;23752;-65
2024/03/14 02:39:53;;;;;;;113.40;93.10;;;;;;;8.09;73.18;100502.81;110711;1256;21958;-67
2024/03/14 02:42:22;;;;;;;112.30;93.70;;;;;;;8.03;73.22;100500.70;110755;1256;21958;-66
2024/03/14 02:44:51;;;;;;;108.60;91.30;;;;;;;7.98;73.30;100498.67;110752;1256;21947;-69
2024/03/14 02:47:21;;;;;;;110.50;94.90;;;;;;;7.96;73.39;100499.86;110834;1256;21964;-67
2024/03/14 02:49:51;;;;;;;107.60;91.90;;;;;;;7.93;73.33;100498.79;110869;1256;21958;-66
2024/03/14 02:52:20;;;;;;;112.80;96.70;;;;;;;7.90;73.29;100503.31;110799;1256;22009;-66
2024/03/14 02:54:50;;;;;;;108.70;93.30;;;;;;;7.88;73.66;100499.58;110840;1256;22639;-67
2024/03/14 02:57:19;;;;;;;112.10;92.20;;;;;;;7.88;73.81;100500.64;110756;1256;21958;-67
2024/03/14 02:59:50;;;;;;;113.70;93.70;;;;;;;7.91;73.87;100500.32;110582;1256;23747;-67
2024/03/14 03:02:20;;;;;;;112.70;96.30;;;;;;;7.95;73.78;100502.52;110820;1256;23024;-66
2024/03/14 03:04:49;;;;;;;111.20;94.60;;;;;;;7.99;73.52;100500.71;110543;1256;21977;-67
2024/03/14 03:07:19;;;;;;;112.00;93.50;;;;;;;8.04;73.41;100501.13;110620;1256;21962;-68
2024/03/14 03:09:49;;;;;;;114.40;95.60;;;;;;;8.08;73.32;100504.43;110600;1256;21962;-67
2024/03/14 03:12:18;;;;;;;108.60;94.20;;;;;;;8.12;73.14;100501.55;110528;1256;21962;-67
2024/03/14 03:14:47;;;;;;;106.00;90.70;;;;;;;8.09;73.19;100503.16;110866;1256;23601;-67
2024/03/14 03:17:17;;;;;;;108.50;92.20;;;;;;;8.03;73.15;100504.18;110844;1256;23594;-66
2024/03/14 03:19:46;;;;;;;110.90;94.80;;;;;;;7.94;73.20;100503.62;110477;1256;22656;-67
2024/03/14 03:22:15;;;;;;;109.50;93.90;;;;;;;7.87;73.58;100503.70;110878;1256;21957;-67
2024/03/14 03:24:45;;;;;;;117.90;100.10;;;;;;;7.79;73.79;100501.71;110487;1256;23586;-66
2024/03/14 03:27:15;;;;;;;119.40;99.10;;;;;;;7.75;73.70;100499.27;110585;1256;21965;-67
2024/03/14 03:29:44;;;;;;;120.50;99.60;;;;;;;7.74;73.77;100499.18;110518;1256;23598;-68
2024/03/14 03:32:14;;;;;;;118.80;98.50;;;;;;;7.75;73.91;100502.29;110810;1256;21959;-68
2024/03/14 03:34:46;;;;;;;133.20;113.60;;;;;;;7.76;73.76;100503.06;110482;1256;21989;-66
2024/03/14 03:37:15;;;;;;;122.10;98.70;;;;;;;7.75;74.00;100504.71;110881;1256;22583;-68
2024/03/14 03:39:47;;;;;;;113.40;96.80;;;;;;;7.75;73.97;100506.45;110777;1256;21956;-66
2024/03/14 03:42:16;;;;;;;114.30;97.00;;;;;;;7.75;73.97;100503.48;110791;1256;23599;-68
2024/03/14 03:44:46;;;;;;;110.30;93.00;;;;;;;7.75;73.90;100504.89;110901;1256;21962;-66
2024/03/14 03:47:20;;;;;;;117.20;97.40;;;;;;;7.75;74.06;100504.52;110807;1256;21968;-67
2024/03/14 03:49:50;;;;;;;114.10;96.10;;;;;;;7.77;74.07;100505.65;110832;1255;22000;-67
2024/03/14 03:52:19;;;;;;;112.30;92.90;;;;;;;7.82;73.98;100506.61;110604;1256;21965;-66
2024/03/14 03:54:49;;;;;;;109.80;95.00;;;;;;;7.88;74.11;100504.88;110557;1256;22038;-67
2024/03/14 03:57:19;;;;;;;110.40;96.10;;;;;;;7.92;73.88;100505.11;110465;1245;23026;-67
2024/03/14 03:59:49;;;;;;;116.80;96.50;;;;;;;7.97;73.88;100503.65;110656;1256;22241;-67
2024/03/14 04:02:18;;;;;;;118.20;99.30;;;;;;;7.99;73.81;100502.83;110488;1256;21963;-67
2024/03/14 04:04:47;;;;;;;111.50;94.40;;;;;;;7.96;73.65;100504.58;110549;1256;22070;-66
2024/03/14 04:07:19;;;;;;;112.60;94.90;;;;;;;7.87;73.88;100500.86;110532;1256;21997;-68
2024/03/14 04:09:51;;;;;;;109.20;91.30;;;;;;;7.77;74.22;100503.90;110545;1256;23794;-67
2024/03/14 04:12:20;;;;;;;113.90;95.30;;;;;;;7.68;74.07;100502.65;110597;1256;23715;-67
2024/03/14 04:14:51;;;;;;;111.20;94.60;;;;;;;7.62;74.31;100506.86;110525;1256;21965;-67
2024/03/14 04:17:20;;;;;;;105.90;92.20;;;;;;;7.56;74.77;100503.83;110805;1250;23608;-69
2024/03/14 04:19:50;;;;;;;114.10;95.40;;;;;;;7.51;75.15;100502.88;110743;1256;22754;-70
2024/03/14 04:22:20;;;;;;;113.20;97.30;;;;;;;7.47;75.07;100502.74;110779;1256;22020;-68
2024/03/14 04:24:49;;;;;;;115.20;96.30;;;;;;;7.44;74.91;100502.37;110767;1256;21956;-67
2024/03/14 04:27:18;;;;;;;112.90;93.90;;;;;;;7.42;75.25;100501.95;110775;1256;23697;-68
2024/03/14 04:29:47;;;;;;;110.60;97.20;;;;;;;7.40;75.39;100505.24;110678;1256;21965;-69
2024/03/14 04:32:17;;;;;;;118.70;97.20;;;;;;;7.39;75.34;100504.61;110749;1256;23006;-66
2024/03/14 04:34:47;;;;;;;108.30;94.60;;;;;;;7.36;75.71;100503.68;110853;1256;21965;-67
2024/03/14 04:37:16;;;;;;;112.10;95.00;;;;;;;7.34;75.82;100507.28;110562;1256;21955;-69
2024/03/14 04:39:47;;;;;;;111.00;95.20;;;;;;;7.34;75.59;100511.55;110552;1252;21962;-68
2024/03/14 04:42:17;;;;;;;116.10;97.10;;;;;;;7.35;75.57;100512.52;110787;1256;21970;-68
2024/03/14 04:44:46;;;;;;;114.50;97.50;;;;;;;7.39;75.42;100516.17;110846;1256;23577;-67
2024/03/14 04:47:16;;;;;;;112.70;93.90;;;;;;;7.43;75.39;100515.21;110799;1256;21955;-67
2024/03/14 04:49:47;;;;;;;117.70;94.00;;;;;;;7.49;75.44;100516.48;110862;1256;22084;-68
2024/03/14 04:52:16;;;;;;;110.30;93.80;;;;;;;7.56;75.39;100520.84;110851;1256;23368;-68
2024/03/14 04:54:46;;;;;;;112.50;93.10;;;;;;;7.58;75.22;100522.33;110446;1256;24334;-69
2024/03/14 04:57:15;;;;;;;112.10;92.20;;;;;;;7.52;75.26;100520.54;110813;1256;22538;-68
2024/03/14 04:59:45;;;;;;;114.00;94.10;;;;;;;7.45;75.44;100518.77;110809;1256;21972;-67
2024/03/14 05:02:15;;;;;;;110.00;92.90;;;;;;;7.40;75.71;100517.30;110531;1256;24457;-68
2024/03/14 05:04:44;;;;;;;112.80;93.20;;;;;;;7.40;75.62;100517.86;110796;1256;23688;-67
2024/03/14 05:07:14;;;;;;;124.90;101.30;;;;;;;7.41;75.68;100520.77;110852;1256;23609;-67
2024/03/14 05:09:43;;;;;;;118.50;95.10;;;;;;;7.43;75.82;100520.33;110117;1262;22542;-67
2024/03/14 05:12:13;;;;;;;117.50;96.00;;;;;;;7.43;75.76;100521.02;110042;1262;21976;-67
2024/03/14 05:14:43;;;;;;;103.50;88.10;;;;;;;7.42;75.66;100524.04;110318;1262;21985;-68
2024/03/14 05:17:13;;;;;;;109.10;89.80;;;;;;;7.41;75.58;100524.45;110120;1262;21972;-68
2024/03/14 05:19:42;;;;;;;105.20;88.00;;;;;;;7.40;75.63;100524.16;110331;1262;21985;-66
2024/03/14 05:22:12;;;;;;;116.40;96.60;;;;;;;7.41;75.56;100525.48;110205;1262;23605;-67
2024/03/14 05:24:41;;;;;;;104.50;88.70;;;;;;;7.45;75.41;100524.77;110173;1262;21963;-68
2024/03/14 05:27:10;;;;;;;105.60;89.20;;;;;;;7.50;75.55;100528.17;110093;1256;22630;-67
2024/03/14 05:29:41;;;;;;;105.10;88.70;;;;;;;7.49;75.31;100528.41;110556;1256;22731;-67
2024/03/14 05:32:27;;;;;;;97.90;87.10;;;;;;;7.46;75.55;100529.11;110495;1256;22016;-68
2024/03/14 05:35:00;;;;;;;107.80;90.30;;;;;;;7.41;75.69;100526.92;111035;1253;23602;-69
2024/03/14 05:37:30;;;;;;;104.60;87.60;;;;;;;7.39;75.67;100524.91;110842;1256;23618;-69
2024/03/14 05:39:59;;;;;;;100.00;88.50;;;;;;;7.37;75.60;100524.64;110769;1256;21964;-68
2024/03/14 05:42:28;;;;;;;102.80;89.50;;;;;;;7.36;76.05;100528.56;111032;1256;21986;-67
2024/03/14 05:44:58;;;;;;;111.40;88.30;;;;;;;7.38;75.92;100528.47;110857;1256;21959;-68
2024/03/14 05:47:27;;;;;;;104.70;89.30;;;;;;;7.44;75.99;100530.23;110838;1256;23621;-70
2024/03/14 05:49:57;;;;;;;111.00;94.10;;;;;;;7.52;75.76;100531.77;110575;1256;21971;-68
2024/03/14 05:52:26;;;;;;;104.40;88.70;;;;;;;7.59;75.50;100528.58;110620;1256;21959;-69
2024/03/14 05:54:57;;;;;;;149.90;130.00;;;;;;;7.55;75.47;100528.44;110566;1256;21958;-68
2024/03/14 05:57:27;;;;;;;109.90;93.00;;;;;;;7.51;75.55;100531.41;110817;1256;21958;-67
2024/03/14 05:59:58;;;;;;;104.60;89.90;;;;;;;7.50;75.80;100532.55;110610;1256;22021;-67
2024/03/14 06:02:27;;;;;;;115.20;95.20;;;;;;;7.50;75.67;100531.83;110794;1256;23612;-66
2024/03/14 06:04:57;;;;;;;109.70;92.50;;;;;;;7.53;75.88;100533.45;110759;1256;23573;-67
2024/03/14 06:07:26;;;;;;;112.60;93.30;;;;;;;7.56;75.64;100535.05;110638;1256;21957;-67
2024/03/14 06:09:57;;;;;;;108.30;90.70;;;;;;;7.59;75.79;100534.67;110849;1250;23060;-69
2024/03/14 06:12:26;;;;;;;106.40;93.50;;;;;;;7.69;76.13;100535.55;110649;1256;23634;-67
2024/03/14 06:14:56;;;;;;;111.00;91.10;;;;;;;7.83;75.86;100533.56;110639;1256;21955;-67
2024/03/14 06:17:25;;;;;;;111.50;93.70;;;;;;;7.93;75.44;100535.06;110992;1255;21971;-67
2024/03/14 06:19:57;;;;;;;114.30;90.90;;;;;;;8.00;75.18;100535.71;110794;1256;21957;-67
2024/03/14 06:22:26;;;;;;;108.40;87.90;;;;;;;8.05;74.99;100536.67;111143;1256;22068;-67
2024/03/14 06:24:55;;;;;;;99.20;86.80;;;;;;;8.09;74.91;100536.84;110758;1256;23017;-68
2024/03/14 06:27:24;;;;;;;98.20;87.50;;;;;;;8.12;74.68;100541.05;110496;1256;21990;-66
2024/03/14 06:29:54;;;;;;;103.90;84.20;;;;;;;8.22;74.57;100538.55;110801;1256;21976;-67
2024/03/14 06:32:24;;;;;;;100.30;85.20;;;;;;;8.31;74.23;100538.20;110797;1256;22762;-66
2024/03/14 06:34:53;;;;;;;96.90;81.90;;;;;;;8.35;74.14;100536.02;110485;1256;21958;-67
2024/03/14 06:37:23;;;;;;;93.50;80.20;;;;;;;8.39;73.85;100538.45;110795;1256;21957;-68
2024/03/14 06:39:52;;;;;;;99.40;84.90;;;;;;;8.43;73.74;100536.10;111044;1256;22037;-67
2024/03/14 06:42:23;;;;;;;94.50;82.70;;;;;;;8.52;73.52;100538.23;110873;1256;22000;-67
2024/03/14 06:44:52;;;;;;;93.60;81.10;;;;;;;8.60;73.27;100539.02;110817;1256;22435;-66
2024/03/14 06:47:22;;;;;;;92.50;78.40;;;;;;;8.65;73.10;100538.52;110724;1256;21955;-66
2024/03/14 06:49:52;;;;;;;93.30;79.80;;;;;;;8.68;72.76;100539.55;111010;1256;22003;-67
2024/03/14 06:52:22;;;;;;;92.70;78.50;;;;;;;8.72;72.61;100541.99;110496;1256;23682;-67
2024/03/14 06:54:53;;;;;;;109.60;89.80;;;;;;;8.75;72.59;100543.89;110543;1256;21960;-68
2024/03/14 06:57:22;;;;;;;93.80;81.20;;;;;;;8.79;72.32;100546.98;110806;1256;21989;-67
2024/03/14 06:59:52;;;;;;;88.80;76.50;;;;;;;8.80;72.25;100547.79;110830;1256;21947;-66
2024/03/14 07:02:22;;;;;;;90.50;78.10;;;;;;;8.79;72.17;100551.36;110839;1256;22777;-67
2024/03/14 07:04:52;;;;;;;87.10;74.00;;;;;;;8.82;72.28;100549.60;110718;1256;21962;-68
2024/03/14 07:07:21;;;;;;;85.00;74.20;;;;;;;8.90;71.89;100550.88;110855;1256;22732;-67
2024/03/14 07:09:50;;;;;;;91.60;77.60;;;;;;;8.98;71.94;100552.88;110929;1256;21966;-67
2024/03/14 07:12:21;;;;;;;93.00;76.30;;;;;;;9.07;71.70;100554.96;110724;1256;22000;-68
2024/03/14 07:14:52;;;;;;;97.00;79.40;;;;;;;9.13;71.16;100554.77;110776;1256;21973;-68
2024/03/14 07:17:21;;;;;;;85.90;75.30;;;;;;;9.18;70.98;100553.60;110430;1256;21968;-68
2024/03/14 07:19:54;;;;;;;93.50;76.90;;;;;;;9.32;70.38;100553.40;110846;1254;23476;-66
2024/03/14 07:22:24;;;;;;;89.60;77.10;;;;;;;9.73;69.30;100559.99;110881;1257;21960;-66
2024/03/14 07:24:54;;;;;;;89.20;73.70;;;;;;;10.08;68.18;100563.73;111076;1257;21978;-67
2024/03/14 07:27:23;;;;;;;99.30;81.60;;;;;;;10.39;67.21;100561.58;110782;1257;21968;-67
2024/03/14 07:29:53;;;;;;;131.40;101.60;;;;;;;10.88;66.32;100562.55;110770;1257;21959;-67
2024/03/14 07:32:24;;;;;;;94.90;80.50;;;;;;;11.40;65.21;100562.14;110791;1256;23519;-69
2024/03/14 07:34:53;;;;;;;88.30;75.10;;;;;;;11.95;63.72;100567.55;110845;1256;23632;-68
2024/03/14 07:37:25;;;;;;;85.10;75.10;;;;;;;12.44;62.05;100572.61;110813;1256;23598;-68
2024/03/14 07:39:54;;;;;;;87.60;70.50;;;;;;;12.88;61.47;100571.63;110765;1256;23691;-68
2024/03/14 07:42:23;;;;;;;85.10;68.70;;;;;;;13.32;59.76;100569.29;111055;1256;23738;-67
2024/03/14 07:44:54;;;;;;;82.40;68.80;;;;;;;13.81;59.05;100573.91;110813;1257;21964;-69
2024/03/14 07:47:25;;;;;;;73.20;62.80;;;;;;;14.33;57.53;100576.29;110854;1250;23615;-70
2024/03/14 07:49:55;;;;;;;77.70;65.80;;;;;;;14.96;56.36;100577.00;110652;1257;22028;-69
2024/03/14 07:52:24;;;;;;;78.40;62.10;;;;;;;15.41;53.69;100576.54;111140;1256;21959;-67
2024/03/14 07:54:53;;;;;;;70.10;57.50;;;;;;;15.55;51.61;100578.02;110848;1256;22764;-67
2024/03/14 07:57:22;;;;;;;61.90;54.00;;;;;;;15.70;51.23;100576.92;110810;1256;21968;-67
2024/03/14 07:59:52;;;;;;;62.10;50.90;;;;;;;15.76;50.74;100578.16;110929;1256;21960;-67
2024/03/14 08:02:23;;;;;;;63.20;54.00;;;;;;;15.72;49.41;100581.29;110791;1256;23149;-67
2024/03/14 08:04:52;;;;;;;67.40;60.00;;;;;;;15.84;48.92;100577.45;111133;1256;23026;-67
2024/03/14 08:07:22;;;;;;;73.30;63.00;;;;;;;16.13;48.51;100578.77;110788;1256;21960;-67
2024/03/14 08:09:51;;;;;;;59.70;52.30;;;;;;;16.51;47.45;100576.91;111050;1256;21955;-68
2024/03/14 08:12:21;;;;;;;53.40;47.70;;;;;;;16.87;47.38;100579.98;111032;1254;21958;-68
2024/03/14 08:14:58;;;;;;;52.30;46.80;;;;;;;17.09;46.28;100578.13;110899;1256;22708;-68
2024/03/14 08:17:28;;;;;;;55.70;49.70;;;;;;;17.39;45.90;100579.02;110905;1256;21965;-69
2024/03/14 08:20:07;;;;;;;51.00;44.90;;;;;;;17.66;44.85;100582.55;110879;1256;21965;-68
2024/03/14 08:22:37;;;;;;;48.10;42.70;;;;;;;17.65;43.96;100577.27;110885;1256;23614;-69
2024/03/14 08:25:15;;;;;;;47.90;42.70;;;;;;;17.65;43.47;100581.23;110839;1257;22002;-68
2024/03/14 08:27:49;;;;;;;53.20;42.10;;;;;;;17.96;42.82;100581.27;110830;1256;21970;-68
2024/03/14 08:30:19;;;;;;;46.50;39.90;;;;;;;18.01;41.24;100582.52;110854;1254;21955;-67
2024/03/14 08:32:49;;;;;;;45.40;39.40;;;;;;;18.10;41.50;100583.09;111136;1257;22731;-68
2024/03/14 08:35:20;;;;;;;76.50;68.70;;;;;;;18.30;41.11;100581.23;110780;1256;23806;-68
2024/03/14 08:37:49;;;;;;;47.00;42.00;;;;;;;18.52;40.56;100577.64;110813;1256;21950;-68
2024/03/14 08:40:18;;;;;;;45.50;40.70;;;;;;;18.74;38.99;100577.20;110835;1256;21968;-68
2024/03/14 08:42:52;;;;;;;45.40;40.30;;;;;;;18.88;39.06;100579.95;110903;1256;21952;-68
2024/03/14 08:45:23;;;;;;;44.00;39.60;;;;;;;18.94;38.40;100582.21;110863;1257;21954;-66
2024/03/14 08:47:52;;;;;;;45.70;41.00;;;;;;;18.66;38.36;100584.97;111456;1256;22691;-65
2024/03/14 08:50:22;;;;;;;42.30;37.90;;;;;;;18.52;38.96;100581.21;112051;1256;21955;-68
2024/03/14 08:52:56;;;;;;;43.50;38.90;;;;;;;18.50;38.10;100579.63;112208;1256;21937;-71
2024/03/14 08:55:37;;;;;;;42.50;38.00;;;;;;;18.51;38.32;100579.67;112272;1256;21954;-69
2024/03/14 08:58:08;;;;;;;41.90;37.50;;;;;;;18.46;38.16;100579.52;112136;1256;22076;-68
2024/03/14 09:00:38;;;;;;;44.90;38.40;;;;;;;18.41;38.38;100576.80;112314;1256;22475;-69
2024/03/14 09:03:08;;;;;;;55.30;49.50;;;;;;;18.82;39.13;100581.06;110970;1250;21960;-69
2024/03/14 09:05:39;;;;;;;45.30;40.40;;;;;;;19.12;37.82;100584.30;110611;1257;21970;-69
2024/03/14 09:08:08;;;;;;;40.90;36.60;;;;;;;19.07;37.79;100583.94;110802;1257;22740;-70
2024/03/14 09:10:38;;;;;;;45.10;40.50;;;;;;;18.89;37.53;100583.90;110786;1256;22076;-68
2024/03/14 09:13:07;;;;;;;59.50;53.20;;;;;;;18.93;37.64;100588.35;110924;1256;21951;-68
2024/03/14 09:15:36;;;;;;;46.90;42.00;;;;;;;19.12;36.86;100587.80;110481;1256;168477;-68
2024/03/14 09:18:06;;;;;;;41.90;37.70;;;;;;;19.35;36.50;100583.98;110903;1256;21955;-65
2024/03/14 09:20:38;;;;;;;41.40;33.60;;;;;;;19.67;37.16;100580.38;110860;1256;22758;-75
2024/03/14 09:23:15;;;;;;;39.50;34.90;;;;;;;20.02;35.90;100585.80;111127;1257;21973;-65
2024/03/14 09:25:45;;;;;;;35.20;31.60;;;;;;;20.26;35.00;100582.19;110797;1256;21956;-68
2024/03/14 09:28:14;;;;;;;40.60;35.00;;;;;;;20.25;34.80;100584.81;110791;1257;21958;-68
2024/03/14 09:30:43;;;;;;;35.00;31.50;;;;;;;19.87;35.12;100580.95;110788;1256;22012;-67
2024/03/14 09:33:13;;;;;;;35.00;31.30;;;;;;;19.60;35.03;100579.34;110824;1257;21951;-67
2024/03/14 09:35:44;;;;;;;39.90;35.60;;;;;;;19.56;35.49;100576.30;110885;1256;21960;-65
2024/03/14 09:38:15;;;;;;;40.60;36.40;;;;;;;19.60;35.34;100577.56;111056;1256;23697;-66
2024/03/14 09:40:44;;;;;;;33.90;30.20;;;;;;;19.70;35.85;100574.52;110900;1257;22022;-67
2024/03/14 09:43:19;;;;;;;44.90;40.10;;;;;;;19.96;35.16;100576.95;110894;1256;21963;-75
2024/03/14 09:45:54;;;;;;;38.90;35.10;;;;;;;19.92;34.67;100574.90;110764;1257;21950;-68
2024/03/14 09:48:31;;;;;;;31.60;28.30;;;;;;;19.68;34.31;100575.77;110933;1256;23691;-70
2024/03/14 09:51:06;;;;;;;30.30;27.10;;;;;;;19.37;33.92;100578.83;111078;1256;22326;-76
2024/03/14 09:53:38;;;;;;;26.40;23.70;;;;;;;19.24;34.18;100578.23;110657;1257;23013;-70
2024/03/14 09:56:08;;;;;;;29.40;26.40;;;;;;;19.07;33.61;100579.96;110800;1256;23709;-69
2024/03/14 09:58:39;;;;;;;30.40;27.20;;;;;;;19.04;33.79;100573.58;110620;1256;21966;-70
2024/03/14 10:01:11;;;;;;;33.00;29.80;;;;;;;19.15;33.88;100572.95;110763;1256;25082;-71
2024/03/14 10:03:41;;;;;;;25.20;22.40;;;;;;;19.34;34.10;100570.59;110854;1257;21964;-72
2024/03/14 10:06:17;;;;;;;25.50;22.00;;;;;;;19.63;33.57;100572.17;110814;1256;21964;-71
2024/03/14 10:08:50;;;;;;;24.90;22.20;;;;;;;19.70;32.79;100572.77;111033;1256;23576;-70
2024/03/14 10:11:20;;;;;;;25.90;23.20;;;;;;;19.71;32.44;100571.60;111037;1256;23583;-70
2024/03/14 10:13:50;;;;;;;27.00;24.20;;;;;;;19.71;33.04;100567.96;111054;1251;23657;-70
2024/03/14 10:16:21;;;;;;;21.30;19.00;;;;;;;19.88;33.04;100564.77;111185;1257;21971;-69
2024/03/14 10:18:52;;;;;;;19.70;17.80;;;;;;;19.98;32.11;100568.55;111033;1256;21958;-67
2024/03/14 10:21:21;;;;;;;24.60;22.00;;;;;;;20.07;31.61;100568.00;110925;1256;21962;-67
2024/03/14 10:23:51;;;;;;;24.10;20.70;;;;;;;20.00;30.59;100568.02;110839;1256;23587;-67
2024/03/14 10:26:22;;;;;;;23.20;20.80;;;;;;;19.82;30.24;100566.66;110829;1248;23605;-67
2024/03/14 10:28:52;;;;;;;22.70;19.60;;;;;;;19.66;30.19;100565.67;110824;1257;21958;-67
2024/03/14 10:31:21;;;;;;;19.70;17.30;;;;;;;19.31;30.19;100565.19;111058;1256;23576;-67
2024/03/14 10:33:51;;;;;;;18.10;16.30;;;;;;;19.19;30.70;100565.85;110830;1256;22000;-67
2024/03/14 10:36:22;;;;;;;18.70;16.80;;;;;;;19.19;29.95;100567.32;111064;1256;22758;-69
2024/03/14 10:38:53;;;;;;;18.50;16.70;;;;;;;19.04;29.66;100565.64;110809;1257;21973;-70
2024/03/14 10:41:25;;;;;;;14.60;13.30;;;;;;;19.05;29.41;100565.52;110762;1256;22767;-69
2024/03/14 10:44:00;;;;;;;14.90;13.10;;;;;;;19.18;29.38;100562.60;110603;1256;21960;-69
2024/03/14 10:46:30;;;;;;;37.70;34.10;;;;;;;19.43;28.50;100560.59;110840;1257;24987;-69
2024/03/14 10:49:03;;;;;;;16.70;14.80;;;;;;;19.50;28.49;100556.31;110479;1256;21968;-66
2024/03/14 10:51:33;;;;;;;19.70;17.60;;;;;;;19.63;28.40;100553.30;110800;1256;23587;-70
2024/03/14 10:54:08;;;;;;;16.30;14.60;;;;;;;19.66;28.50;100553.17;110677;1256;21961;-67
2024/03/14 10:56:40;;;;;;;13.90;12.50;;;;;;;19.46;27.81;100553.27;110776;1256;23607;-67
2024/03/14 10:59:16;;;;;;;12.00;10.90;;;;;;;19.59;26.08;100553.02;110539;1256;23104;-68
2024/03/14 11:01:55;;;;;;;15.00;13.50;;;;;;;19.90;25.94;100551.73;110810;1256;22026;-67
2024/03/14 11:04:28;;;;;;;14.80;11.30;;;;;;;20.17;25.32;100552.91;110994;1256;21976;-66
2024/03/14 11:07:06;;;;;;;15.00;13.40;;;;;;;20.64;25.39;100549.99;110657;1257;21959;-68
2024/03/14 11:09:53;;;;;;;19.10;14.50;;;;;;;21.37;24.81;100541.40;110824;1257;21964;-67
2024/03/14 11:12:23;;;;;;;18.10;14.00;;;;;;;22.23;23.99;100537.06;111099;1256;21973;-68
2024/03/14 11:15:02;;;;;;;18.80;17.10;;;;;;;22.54;23.54;100540.46;111057;1256;22593;-67